Arcadia, Utah
Current Conditions -  °F | °C
As of 4:53 AM on Saturday 01 Nov 2014 (Local Time) from KPUC Reporting Station
Overcast Overcast  
Wind Chill: 53°   Ceiling: 7500
Heat Index: 53°   Visibility: 10mi
Dew Point: 27°   Wind: 7mph
Humidity: 37%   Direction: 80°E
Pressure: 29.91"   Gusts: NA
Location:  39.9707°N, 110.477°W
Report Text: KPUC 011053Z AUTO 08006KT 10SM SCT060 BKN075 OVC095 12/M03 A2991 RMK AO2 SLP086 T01171028 TSNO
Loading
Personal Weather Stations






























Interactive Weather Map
Tropical Storm Tracking
New forecast layout! Learn more

10-Day Weather Forecast

Advertisements
Track Severe Weather on mobile